Time;durP1;ratioP1;P1;durP2;ratioP2;P2;SDS_P1;SDS_P2;PMS_P1;PMS_P2;Temp;Humidity;BMP_temperature;BMP_pressure;BME280_temperature;BME280_humidity;BME280_pressure;Samples;Min_cycle;Max_cycle;Signal;HPM_P1;HPM_P2
2022/09/03 00:00:38;;;;;;;;;;;;;;;;;;4984754;28;19958;-80
2022/09/03 00:03:04;;;;;;;;;;;;;;;;;;5002624;28;19917;-81
2022/09/03 00:05:29;;;;;;;;;;;;;;;;;;4985780;28;20285;-80
2022/09/03 00:07:55;;;;;;;;;;;;;;;;;;4998907;28;19914;-81
2022/09/03 00:10:21;;;;;;;;;;;;;;;;;;5000947;28;19913;-81
2022/09/03 00:12:46;;;;;;;;;;;;;;;;;;4999098;28;19913;-81
2022/09/03 00:15:12;;;;;;;;;;;;;;;;;;5013386;28;19921;-82
2022/09/03 00:17:37;;;;;;;;;;;;;;;;;;4998412;28;19959;-81
2022/09/03 00:20:03;;;;;;;;;;;;;;;;;;4996697;28;19961;-81
2022/09/03 00:22:28;;;;;;;;;;;;;;;;;;4996653;28;20004;-81
2022/09/03 00:24:54;;;;;;;;;;;;;;;;;;4998130;28;19961;-81
2022/09/03 00:27:19;;;;;;;;;;;;;;;;;;4996220;28;19968;-82
2022/09/03 00:29:45;;;;;;;;;;;;;;;;;;5012284;28;19914;-81
2022/09/03 00:32:10;;;;;;;;;;;;;;;;;;5011336;28;20401;-81
2022/09/03 00:34:38;;;;;;;;;;;;;;;;;;4993963;28;19914;-81
2022/09/03 00:37:04;;;;;;;;;;;;;;;;;;4993980;28;19949;-81
2022/09/03 00:39:29;;;;;;;;;;;;;;;;;;4995094;28;19910;-81
2022/09/03 00:41:58;;;;;;;;;;;;;;;;;;4994823;28;20290;-81
2022/09/03 00:44:25;;;;;;;;;;;;;;;;;;4993307;28;19961;-81
2022/09/03 00:46:51;;;;;;;;;;;;;;;;;;4994430;28;19920;-80
2022/09/03 00:49:16;;;;;;;;;;;;;;;;;;4993541;28;19914;-80
2022/09/03 00:51:42;;;;;;;;;;;;;;;;;;4977362;28;19913;-81
2022/09/03 00:54:08;;;;;;;;;;;;;;;;;;4993028;28;19918;-82
2022/09/03 00:56:34;;;;;;;;;;;;;;;;;;5010075;28;19919;-81
2022/09/03 00:59:00;;;;;;;;;;;;;;;;;;4977290;28;20324;-82
2022/09/03 01:01:25;;;;;;;;;;;;;;;;;;4993255;28;20000;-81
2022/09/03 01:03:53;;;;;;;;;;;;;;;;;;5009636;28;19917;-82
2022/09/03 01:06:22;;;;;;;;;;;;;;;;;;4995877;28;20008;-81
2022/09/03 01:08:49;;;;;;;;;;;;;;;;;;4979678;28;19914;-81
2022/09/03 01:11:17;;;;;;;;;;;;;;;;;;4977441;28;19967;-82
2022/09/03 01:13:43;;;;;;;;;;;;;;;;;;4978677;28;19917;-81
2022/09/03 01:16:09;;;;;;;;;;;;;;;;;;4996735;28;19913;-82
2022/09/03 01:18:35;;;;;;;;;;;;;;;;;;4979078;28;19914;-81
2022/09/03 01:21:00;;;;;;;;;;;;;;;;;;4994668;28;20048;-81
2022/09/03 01:23:26;;;;;;;;;;;;;;;;;;4995818;28;20004;-81
2022/09/03 01:25:52;;;;;;;;;;;;;;;;;;4979334;28;19922;-81
2022/09/03 01:28:19;;;;;;;;;;;;;;;;;;4998937;28;20000;-82
2022/09/03 01:30:47;;;;;;;;;;;;;;;;;;5016595;28;19942;-81
2022/09/03 01:33:13;;;;;;;;;;;;;;;;;;4999982;28;20008;-81
2022/09/03 01:35:38;;;;;;;;;;;;;;;;;;4996339;28;20051;-82
2022/09/03 01:38:04;;;;;;;;;;;;;;;;;;5009304;28;19914;-82
2022/09/03 01:40:30;;;;;;;;;;;;;;;;;;4976788;28;20248;-82
2022/09/03 01:42:59;;;;;;;;;;;;;;;;;;5009009;28;19953;-80
2022/09/03 01:45:27;;;;;;;;;;;;;;;;;;4994045;28;19942;-82
2022/09/03 01:47:53;;;;;;;;;;;;;;;;;;4995788;28;19914;-81
2022/09/03 01:50:19;;;;;;;;;;;;;;;;;;5009911;28;19913;-81
2022/09/03 01:52:44;;;;;;;;;;;;;;;;;;4977776;28;20008;-81
2022/09/03 01:55:10;;;;;;;;;;;;;;;;;;4993493;28;20409;-81
2022/09/03 01:57:35;;;;;;;;;;;;;;;;;;4993711;28;19936;-80
2022/09/03 02:00:01;;;;;;;;;;;;;;;;;;4993274;28;19916;-82
2022/09/03 02:02:37;;;;;;;;;;;;;;;;;;4993394;28;19925;-80
2022/09/03 02:05:05;;;;;;;;;;;;;;;;;;4990687;28;19914;-81
2022/09/03 02:07:32;;;;;;;;;;;;;;;;;;4994186;28;19914;-81
2022/09/03 02:09:57;;;;;;;;;;;;;;;;;;4977736;28;19914;-80
2022/09/03 02:12:23;;;;;;;;;;;;;;;;;;4993788;28;19936;-82
2022/09/03 02:14:49;;;;;;;;;;;;;;;;;;4977259;28;19917;-81
2022/09/03 02:17:15;;;;;;;;;;;;;;;;;;4993430;28;20011;-83
2022/09/03 02:19:44;;;;;;;;;;;;;;;;;;5010733;28;19920;-81
2022/09/03 02:22:09;;;;;;;;;;;;;;;;;;4992013;28;20004;-81
2022/09/03 02:24:35;;;;;;;;;;;;;;;;;;4977108;28;20006;-81
2022/09/03 02:27:01;;;;;;;;;;;;;;;;;;4996438;28;19957;-81
2022/09/03 02:29:27;;;;;;;;;;;;;;;;;;5010174;28;19910;-82
2022/09/03 02:31:55;;;;;;;;;;;;;;;;;;5010375;28;19914;-83
2022/09/03 02:34:21;;;;;;;;;;;;;;;;;;4993526;28;19918;-83
2022/09/03 02:36:46;;;;;;;;;;;;;;;;;;5009059;28;19938;-81
2022/09/03 02:39:12;;;;;;;;;;;;;;;;;;4997167;28;19915;-82
2022/09/03 02:41:38;;;;;;;;;;;;;;;;;;5014789;28;19972;-81
2022/09/03 02:44:03;;;;;;;;;;;;;;;;;;4996298;28;19988;-82
2022/09/03 02:46:29;;;;;;;;;;;;;;;;;;4996434;28;20004;-82
2022/09/03 02:48:55;;;;;;;;;;;;;;;;;;4980676;28;19914;-84
2022/09/03 02:51:20;;;;;;;;;;;;;;;;;;4979281;28;19914;-81
2022/09/03 02:53:46;;;;;;;;;;;;;;;;;;4961571;28;19918;-82
2022/09/03 02:56:12;;;;;;;;;;;;;;;;;;5010391;28;19962;-81
2022/09/03 02:58:37;;;;;;;;;;;;;;;;;;5000298;28;19993;-82
2022/09/03 03:01:03;;;;;;;;;;;;;;;;;;4979655;28;19972;-82
2022/09/03 03:03:29;;;;;;;;;;;;;;;;;;4962231;28;20344;-82
2022/09/03 03:05:55;;;;;;;;;;;;;;;;;;4993060;28;19937;-81
2022/09/03 03:08:22;;;;;;;;;;;;;;;;;;5008688;28;19938;-84
2022/09/03 03:10:48;;;;;;;;;;;;;;;;;;4978273;28;19932;-83
2022/09/03 03:13:14;;;;;;;;;;;;;;;;;;4980667;28;20016;-84
2022/09/03 03:15:39;;;;;;;;;;;;;;;;;;4997926;28;20012;-82
2022/09/03 03:18:06;;;;;;;;;;;;;;;;;;5015981;28;20330;-82
2022/09/03 03:20:31;;;;;;;;;;;;;;;;;;5016466;28;19961;-82
2022/09/03 03:22:57;;;;;;;;;;;;;;;;;;4983141;28;19918;-84
2022/09/03 03:25:23;;;;;;;;;;;;;;;;;;4999367;28;19918;-82
2022/09/03 03:27:53;;;;;;;;;;;;;;;;;;4997715;28;19921;-81
2022/09/03 03:30:19;;;;;;;;;;;;;;;;;;4996118;28;19918;-81
2022/09/03 03:32:45;;;;;;;;;;;;;;;;;;4995875;28;20041;-81
2022/09/03 03:35:11;;;;;;;;;;;;;;;;;;4998576;28;19969;-82
2022/09/03 03:37:36;;;;;;;;;;;;;;;;;;5013720;28;19914;-81
2022/09/03 03:40:02;;;;;;;;;;;;;;;;;;4996130;28;20009;-81
2022/09/03 03:42:27;;;;;;;;;;;;;;;;;;4997810;28;19953;-81
2022/09/03 03:44:53;;;;;;;;;;;;;;;;;;4982362;28;19913;-80
2022/09/03 03:47:18;;;;;;;;;;;;;;;;;;5015074;28;20395;-82
2022/09/03 03:49:44;;;;;;;;;;;;;;;;;;5014139;28;19968;-83
2022/09/03 03:52:09;;;;;;;;;;;;;;;;;;5014232;28;20264;-81
2022/09/03 03:54:35;;;;;;;;;;;;;;;;;;5015451;28;19936;-80
2022/09/03 03:57:00;;;;;;;;;;;;;;;;;;5015824;28;19917;-80
2022/09/03 03:59:26;;;;;;;;;;;;;;;;;;5012587;28;19913;-81
2022/09/03 04:01:51;;;;;;;;;;;;;;;;;;5015693;28;19932;-82
2022/09/03 04:04:17;;;;;;;;;;;;;;;;;;5015170;28;19918;-80
2022/09/03 04:06:42;;;;;;;;;;;;;;;;;;4997948;28;19936;-81
2022/09/03 04:09:08;;;;;;;;;;;;;;;;;;5014117;28;19940;-82
2022/09/03 04:11:33;;;;;;;;;;;;;;;;;;5014466;28;20304;-80
2022/09/03 04:13:58;;;;;;;;;;;;;;;;;;5000651;28;19936;-81
2022/09/03 04:16:24;;;;;;;;;;;;;;;;;;5017364;28;19920;-82
2022/09/03 04:18:50;;;;;;;;;;;;;;;;;;5017987;28;19913;-83
2022/09/03 04:21:15;;;;;;;;;;;;;;;;;;5001527;28;19913;-85
2022/09/03 04:23:41;;;;;;;;;;;;;;;;;;4997102;28;20343;-82
2022/09/03 04:26:07;;;;;;;;;;;;;;;;;;5023140;23;19933;-76
2022/09/03 04:28:32;;;;;;;;;;;;;;;;;;5014616;28;19981;-78
2022/09/03 04:30:57;;;;;;;;;;;;;;;;;;4980906;28;20013;-77
2022/09/03 04:33:22;;;;;;;;;;;;;;;;;;5000424;28;19917;-80
2022/09/03 04:35:48;;;;;;;;;;;;;;;;;;4994794;28;19968;-81
2022/09/03 04:38:14;;;;;;;;;;;;;;;;;;4994704;28;19964;-79
2022/09/03 04:40:42;;;;;;;;;;;;;;;;;;4977805;28;19965;-77
2022/09/03 04:43:08;;;;;;;;;;;;;;;;;;4993249;28;19965;-78
2022/09/03 04:45:33;;;;;;;;;;;;;;;;;;4993223;28;20418;-79
2022/09/03 04:47:58;;;;;;;;;;;;;;;;;;4995046;28;19914;-79
2022/09/03 04:50:25;;;;;;;;;;;;;;;;;;4994487;28;19973;-78
2022/09/03 04:52:57;;;;;;;;;;;;;;;;;;4976907;28;20266;-77
2022/09/03 04:55:23;;;;;;;;;;;;;;;;;;4993056;28;19929;-77
2022/09/03 04:57:48;;;;;;;;;;;;;;;;;;4993335;28;19917;-82
2022/09/03 05:00:16;;;;;;;;;;;;;;;;;;4993159;28;19913;-77
2022/09/03 05:02:42;;;;;;;;;;;;;;;;;;4993981;28;20144;-77
2022/09/03 05:05:07;;;;;;;;;;;;;;;;;;4993128;28;20377;-78
2022/09/03 05:07:37;;;;;;;;;;;;;;;;;;4985658;28;20385;-80
2022/09/03 05:10:03;;;;;;;;;;;;;;;;;;4992900;28;19922;-77
2022/09/03 05:12:30;;;;;;;;;;;;;;;;;;4994042;28;20423;-79
2022/09/03 05:14:55;;;;;;;;;;;;;;;;;;4992669;28;19913;-78
2022/09/03 05:17:21;;;;;;;;;;;;;;;;;;4994002;28;20258;-78
2022/09/03 05:19:46;;;;;;;;;;;;;;;;;;4976803;28;19949;-78
2022/09/03 05:22:11;;;;;;;;;;;;;;;;;;4976463;28;19918;-78
2022/09/03 05:24:37;;;;;;;;;;;;;;;;;;5004552;28;19914;-76
2022/09/03 05:27:02;;;;;;;;;;;;;;;;;;5012167;28;19928;-78
2022/09/03 05:29:27;;;;;;;;;;;;;;;;;;5012165;28;19920;-76
2022/09/03 05:31:53;;;;;;;;;;;;;;;;;;5013200;28;19913;-79
2022/09/03 05:34:18;;;;;;;;;;;;;;;;;;5012916;28;19914;-85
2022/09/03 05:36:48;;;;;;;;;;;;;;;;;;5012273;28;20383;-80
2022/09/03 05:39:14;;;;;;;;;;;;;;;;;;4995970;28;19936;-77
2022/09/03 05:41:39;;;;;;;;;;;;;;;;;;5010580;28;20408;-79
2022/09/03 05:44:04;;;;;;;;;;;;;;;;;;5011604;28;19917;-78
2022/09/03 05:46:30;;;;;;;;;;;;;;;;;;5011784;28;19913;-77
2022/09/03 05:48:55;;;;;;;;;;;;;;;;;;5011608;28;19949;-79
2022/09/03 05:51:21;;;;;;;;;;;;;;;;;;5012950;28;20385;-78
2022/09/03 05:53:46;;;;;;;;;;;;;;;;;;5012710;28;20381;-77
2022/09/03 05:56:12;;;;;;;;;;;;;;;;;;5012804;28;20391;-78
2022/09/03 05:58:38;;;;;;;;;;;;;;;;;;5011003;28;19914;-79
2022/09/03 06:01:03;;;;;;;;;;;;;;;;;;5011660;28;19918;-78
2022/09/03 06:03:29;;;;;;;;;;;;;;;;;;5011400;28;19973;-78
2022/09/03 06:05:56;;;;;;;;;;;;;;;;;;5010777;28;20206;-78
2022/09/03 06:08:22;;;;;;;;;;;;;;;;;;5011571;28;19917;-81
2022/09/03 06:10:47;;;;;;;;;;;;;;;;;;5012931;28;19913;-82
2022/09/03 06:13:12;;;;;;;;;;;;;;;;;;5011506;28;20405;-82
2022/09/03 06:15:38;;;;;;;;;;;;;;;;;;5010897;28;19917;-81
2022/09/03 06:18:03;;;;;;;;;;;;;;;;;;5012818;28;19918;-78
2022/09/03 06:20:28;;;;;;;;;;;;;;;;;;5011570;28;20385;-79
2022/09/03 06:22:54;;;;;;;;;;;;;;;;;;5012450;28;19917;-77
2022/09/03 06:25:19;;;;;;;;;;;;;;;;;;5011196;28;19953;-78
2022/09/03 06:27:44;;;;;;;;;;;;;;;;;;5011047;28;19917;-78
2022/09/03 06:30:10;;;;;;;;;;;;;;;;;;5011482;28;19913;-78
2022/09/03 06:32:36;;;;;;;;;;;;;;;;;;5011309;28;19913;-78
2022/09/03 06:35:01;;;;;;;;;;;;;;;;;;5000625;28;20081;-77
2022/09/03 06:37:26;;;;;;;;;;;;;;;;;;4992883;28;19921;-78
2022/09/03 06:39:53;;;;;;;;;;;;;;;;;;4991711;28;19936;-76
2022/09/03 06:42:18;;;;;;;;;;;;;;;;;;4991465;28;19920;-78
2022/09/03 06:44:44;;;;;;;;;;;;;;;;;;4994479;28;19992;-91
2022/09/03 06:47:09;;;;;;;;;;;;;;;;;;4994607;28;19914;-88
2022/09/03 06:49:35;;;;;;;;;;;;;;;;;;4997506;28;20373;-91
2022/09/03 06:52:00;;;;;;;;;;;;;;;;;;4981323;28;20278;-90
2022/09/03 06:54:25;;;;;;;;;;;;;;;;;;4986115;28;19924;-91
2022/09/03 06:56:51;;;;;;;;;;;;;;;;;;4970797;28;19918;-91
2022/09/03 06:59:16;;;;;;;;;;;;;;;;;;4998235;28;19906;-91
2022/09/03 07:01:42;;;;;;;;;;;;;;;;;;5022722;28;19905;-89
2022/09/03 07:04:08;;;;;;;;;;;;;;;;;;5037532;28;19913;-90
2022/09/03 07:06:36;;;;;;;;;;;;;;;;;;5037748;28;19913;-91
2022/09/03 07:09:01;;;;;;;;;;;;;;;;;;5026756;28;19972;-91
2022/09/03 07:11:28;;;;;;;;;;;;;;;;;;4999170;28;19933;-91
2022/09/03 07:13:54;;;;;;;;;;;;;;;;;;5014369;28;20052;-90
2022/09/03 07:16:20;;;;;;;;;;;;;;;;;;5015355;28;19953;-90
2022/09/03 07:18:45;;;;;;;;;;;;;;;;;;5011007;28;20080;-90
2022/09/03 07:21:10;;;;;;;;;;;;;;;;;;4995661;28;19914;-91
2022/09/03 07:23:36;;;;;;;;;;;;;;;;;;4995529;28;19950;-91
2022/09/03 07:26:01;;;;;;;;;;;;;;;;;;4996548;28;19922;-93
2022/09/03 07:28:27;;;;;;;;;;;;;;;;;;4995418;28;20361;-91
2022/09/03 07:30:52;;;;;;;;;;;;;;;;;;4979318;28;19921;-91
2022/09/03 07:33:18;;;;;;;;;;;;;;;;;;4995084;28;19914;-89
2022/09/03 07:35:44;;;;;;;;;;;;;;;;;;5014557;28;19913;-90
2022/09/03 07:38:09;;;;;;;;;;;;;;;;;;4998724;28;19914;-90
2022/09/03 07:40:34;;;;;;;;;;;;;;;;;;5014882;28;19914;-91
2022/09/03 07:43:03;;;;;;;;;;;;;;;;;;5014304;28;20063;-92
2022/09/03 07:45:29;;;;;;;;;;;;;;;;;;4998327;28;20129;-91
2022/09/03 07:47:54;;;;;;;;;;;;;;;;;;5000493;28;19964;-94
2022/09/03 07:50:19;;;;;;;;;;;;;;;;;;5002134;28;20350;-94
2022/09/03 07:52:46;;;;;;;;;;;;;;;;;;5000857;28;19918;-93
2022/09/03 07:55:11;;;;;;;;;;;;;;;;;;4983267;28;19917;-94
2022/09/03 07:57:37;;;;;;;;;;;;;;;;;;4999488;28;20008;-94
2022/09/03 08:00:02;;;;;;;;;;;;;;;;;;4995541;28;20309;-92
2022/09/03 08:02:37;;;;;;;;;;;;;;;;;;4996468;28;19925;-93
2022/09/03 08:05:02;;;;;;;;;;;;;;;;;;4984181;28;20293;-93
2022/09/03 08:07:27;;;;;;;;;;;;;;;;;;4983878;28;20015;-92
2022/09/03 08:09:53;;;;;;;;;;;;;;;;;;4982545;28;19913;-93
2022/09/03 08:12:19;;;;;;;;;;;;;;;;;;4995817;28;19917;-94
2022/09/03 08:14:44;;;;;;;;;;;;;;;;;;4963084;28;19925;-93
2022/09/03 08:17:11;;;;;;;;;;;;;;;;;;4963269;28;20012;-91
2022/09/03 08:19:36;;;;;;;;;;;;;;;;;;4963902;28;20000;-90
2022/09/03 08:22:02;;;;;;;;;;;;;;;;;;4981515;28;19972;-93
2022/09/03 08:24:27;;;;;;;;;;;;;;;;;;4996673;28;19920;-92
2022/09/03 08:26:52;;;;;;;;;;;;;;;;;;4995735;28;19921;-92
2022/09/03 08:29:18;;;;;;;;;;;;;;;;;;4996709;28;19984;-90
2022/09/03 08:31:43;;;;;;;;;;;;;;;;;;4996428;28;19925;-92
2022/09/03 08:34:10;;;;;;;;;;;;;;;;;;4995542;28;20378;-92
2022/09/03 08:36:36;;;;;;;;;;;;;;;;;;4998863;28;19922;-91
2022/09/03 08:39:03;;;;;;;;;;;;;;;;;;5012366;28;20101;-90
2022/09/03 08:41:29;;;;;;;;;;;;;;;;;;5013584;28;19918;-93
2022/09/03 08:43:54;;;;;;;;;;;;;;;;;;5013556;28;19944;-90
2022/09/03 08:46:19;;;;;;;;;;;;;;;;;;5016866;28;20301;-91
2022/09/03 08:48:45;;;;;;;;;;;;;;;;;;5015861;28;20377;-91
2022/09/03 08:51:11;;;;;;;;;;;;;;;;;;5014100;28;20281;-92
2022/09/03 08:53:36;;;;;;;;;;;;;;;;;;5013157;28;19913;-91
2022/09/03 08:56:02;;;;;;;;;;;;;;;;;;4995194;28;20744;-91
2022/09/03 08:58:27;;;;;;;;;;;;;;;;;;4995769;28;20033;-89
2022/09/03 09:01:00;;;;;;;;;;;;;;;;;;4978970;28;19914;-91
2022/09/03 09:03:25;;;;;;;;;;;;;;;;;;4995329;28;20002;-90
2022/09/03 09:05:50;;;;;;;;;;;;;;;;;;4995865;28;20284;-88
2022/09/03 09:08:16;;;;;;;;;;;;;;;;;;4994267;28;20373;-89
2022/09/03 09:10:42;;;;;;;;;;;;;;;;;;4995633;28;19925;-89
2022/09/03 09:13:07;;;;;;;;;;;;;;;;;;4994663;28;20325;-89
2022/09/03 09:15:32;;;;;;;;;;;;;;;;;;4994495;28;20389;-88
2022/09/03 09:17:58;;;;;;;;;;;;;;;;;;4994682;28;20385;-88
2022/09/03 09:20:23;;;;;;;;;;;;;;;;;;5010635;28;20502;-87
2022/09/03 09:22:48;;;;;;;;;;;;;;;;;;5011658;28;19918;-89
2022/09/03 09:25:14;;;;;;;;;;;;;;;;;;4993222;28;19913;-89
2022/09/03 09:27:39;;;;;;;;;;;;;;;;;;4995032;28;19918;-90
2022/09/03 09:30:05;;;;;;;;;;;;;;;;;;4993739;28;19918;-89
2022/09/03 09:32:32;;;;;;;;;;;;;;;;;;4977075;28;19914;-89
2022/09/03 09:34:58;;;;;;;;;;;;;;;;;;4977326;28;20403;-89
2022/09/03 09:37:23;;;;;;;;;;;;;;;;;;4994024;28;19992;-88
2022/09/03 09:39:49;;;;;;;;;;;;;;;;;;4994960;28;20389;-92
2022/09/03 09:42:14;;;;;;;;;;;;;;;;;;4979503;28;20040;-92
2022/09/03 09:44:39;;;;;;;;;;;;;;;;;;4975827;28;19918;-92
2022/09/03 09:47:05;;;;;;;;;;;;;;;;;;5000527;28;20340;-92
2022/09/03 09:49:30;;;;;;;;;;;;;;;;;;4986297;28;20017;-90
2022/09/03 09:51:56;;;;;;;;;;;;;;;;;;5009045;28;19913;-91
2022/09/03 09:54:21;;;;;;;;;;;;;;;;;;5012178;28;19920;-92
2022/09/03 09:56:47;;;;;;;;;;;;;;;;;;5014718;28;19909;-90
2022/09/03 09:59:14;;;;;;;;;;;;;;;;;;5003023;28;19921;-90
2022/09/03 10:01:39;;;;;;;;;;;;;;;;;;5013784;28;20409;-91
2022/09/03 10:04:05;;;;;;;;;;;;;;;;;;5004728;28;19918;-89
2022/09/03 10:09:14;;;;;;;;;;;;;;;;;;4993454;28;19972;-90
2022/09/03 10:11:40;;;;;;;;;;;;;;;;;;4994759;28;19914;-93
2022/09/03 10:14:05;;;;;;;;;;;;;;;;;;4977319;28;19918;-91
2022/09/03 10:16:32;;;;;;;;;;;;;;;;;;4980168;28;19914;-92
2022/09/03 10:18:57;;;;;;;;;;;;;;;;;;5012833;28;19913;-91
2022/09/03 10:21:23;;;;;;;;;;;;;;;;;;5012653;28;20388;-91
2022/09/03 10:23:49;;;;;;;;;;;;;;;;;;4996936;28;19979;-92
2022/09/03 10:26:15;;;;;;;;;;;;;;;;;;5013063;28;19975;-91
2022/09/03 10:28:40;;;;;;;;;;;;;;;;;;4996478;28;20400;-90
2022/09/03 10:31:06;;;;;;;;;;;;;;;;;;4996031;28;19914;-91
2022/09/03 10:33:33;;;;;;;;;;;;;;;;;;4994795;28;19925;-91
2022/09/03 10:35:59;;;;;;;;;;;;;;;;;;4994388;28;19910;-92
2022/09/03 10:38:24;;;;;;;;;;;;;;;;;;4977642;28;20373;-91
2022/09/03 10:40:49;;;;;;;;;;;;;;;;;;4977839;28;19925;-90
2022/09/03 10:43:15;;;;;;;;;;;;;;;;;;4993745;28;20000;-91
2022/09/03 10:45:41;;;;;;;;;;;;;;;;;;4990312;28;20034;-88
2022/09/03 10:48:06;;;;;;;;;;;;;;;;;;4992230;28;20044;-90
2022/09/03 10:50:32;;;;;;;;;;;;;;;;;;4992874;28;19950;-89
2022/09/03 10:52:58;;;;;;;;;;;;;;;;;;4977321;28;20285;-89
2022/09/03 10:55:23;;;;;;;;;;;;;;;;;;4993132;28;20285;-90
2022/09/03 10:57:48;;;;;;;;;;;;;;;;;;4993098;28;19909;-88
2022/09/03 11:00:14;;;;;;;;;;;;;;;;;;4979038;28;19914;-88
2022/09/03 11:02:40;;;;;;;;;;;;;;;;;;4996406;28;20274;-88
2022/09/03 11:05:06;;;;;;;;;;;;;;;;;;5011585;28;20005;-89
2022/09/03 11:07:31;;;;;;;;;;;;;;;;;;4995408;28;20231;-87
2022/09/03 11:09:57;;;;;;;;;;;;;;;;;;5013045;28;19967;-89
2022/09/03 11:12:24;;;;;;;;;;;;;;;;;;4996956;28;19913;-89
2022/09/03 11:14:49;;;;;;;;;;;;;;;;;;5014418;28;19914;-90
2022/09/03 11:17:15;;;;;;;;;;;;;;;;;;5017649;28;20430;-89
2022/09/03 11:19:40;;;;;;;;;;;;;;;;;;5025396;28;19955;-89
2022/09/03 11:22:05;;;;;;;;;;;;;;;;;;5022638;28;19913;-89
2022/09/03 11:24:31;;;;;;;;;;;;;;;;;;4986474;28;19928;-88
2022/09/03 11:26:57;;;;;;;;;;;;;;;;;;5003803;28;19917;-89
2022/09/03 11:29:24;;;;;;;;;;;;;;;;;;5016205;28;19913;-86
2022/09/03 11:31:49;;;;;;;;;;;;;;;;;;5021287;28;19999;-91
2022/09/03 11:34:15;;;;;;;;;;;;;;;;;;5012876;28;20351;-89
2022/09/03 11:36:40;;;;;;;;;;;;;;;;;;5021140;28;20028;-92
2022/09/03 11:39:05;;;;;;;;;;;;;;;;;;5020088;28;19974;-89
2022/09/03 11:41:33;;;;;;;;;;;;;;;;;;5020232;28;19980;-91
2022/09/03 11:43:58;;;;;;;;;;;;;;;;;;5019330;28;19917;-90
2022/09/03 11:46:24;;;;;;;;;;;;;;;;;;5017877;28;20000;-86
2022/09/03 11:48:50;;;;;;;;;;;;;;;;;;4997128;28;20383;-78
2022/09/03 11:51:15;;;;;;;;;;;;;;;;;;4996258;28;20318;-76
2022/09/03 11:53:40;;;;;;;;;;;;;;;;;;4993566;28;20416;-77
2022/09/03 11:56:06;;;;;;;;;;;;;;;;;;4995878;28;19921;-78
2022/09/03 11:58:34;;;;;;;;;;;;;;;;;;4998601;28;19917;-76
2022/09/03 12:01:00;;;;;;;;;;;;;;;;;;5014457;28;19939;-78
2022/09/03 12:03:27;;;;;;;;;;;;;;;;;;5013095;28;20004;-77
2022/09/03 12:05:52;;;;;;;;;;;;;;;;;;5013031;28;19914;-78
2022/09/03 12:08:18;;;;;;;;;;;;;;;;;;5012779;28;20203;-78
2022/09/03 12:10:43;;;;;;;;;;;;;;;;;;5014470;28;19913;-77
2022/09/03 12:13:08;;;;;;;;;;;;;;;;;;5010717;28;19914;-77
2022/09/03 12:15:34;;;;;;;;;;;;;;;;;;5000607;28;19918;-77
2022/09/03 12:18:21;;;;;;;;;;;;;;;;;;4993869;28;19914;-76
2022/09/03 12:20:45;;;;;;;;;;;;;;;;;;5012693;28;19924;-77
2022/09/03 12:23:10;;;;;;;;;;;;;;;;;;5014365;28;19913;-77
2022/09/03 12:25:36;;;;;;;;;;;;;;;;;;5014391;28;20357;-78
2022/09/03 12:28:02;;;;;;;;;;;;;;;;;;5015204;28;20464;-89
2022/09/03 12:30:29;;;;;;;;;;;;;;;;;;4998793;28;19989;-92
2022/09/03 12:32:54;;;;;;;;;;;;;;;;;;5016265;28;19914;-93
2022/09/03 12:35:20;;;;;;;;;;;;;;;;;;5017010;28;19914;-93
2022/09/03 12:37:45;;;;;;;;;;;;;;;;;;5005436;28;19920;-88
2022/09/03 12:40:10;;;;;;;;;;;;;;;;;;4985269;28;19917;-92
2022/09/03 12:42:36;;;;;;;;;;;;;;;;;;4999322;28;19921;-88
2022/09/03 12:45:01;;;;;;;;;;;;;;;;;;4998919;28;20016;-92
2022/09/03 12:47:27;;;;;;;;;;;;;;;;;;5020165;28;19980;-91
2022/09/03 12:49:53;;;;;;;;;;;;;;;;;;5022276;28;19929;-93
2022/09/03 12:52:18;;;;;;;;;;;;;;;;;;5024107;28;19913;-89
2022/09/03 12:54:44;;;;;;;;;;;;;;;;;;4997352;28;19914;-87
2022/09/03 12:57:09;;;;;;;;;;;;;;;;;;5000023;28;19914;-88
2022/09/03 12:59:35;;;;;;;;;;;;;;;;;;4998663;28;19941;-88
2022/09/03 13:02:00;;;;;;;;;;;;;;;;;;5003947;28;19914;-90
2022/09/03 13:04:26;;;;;;;;;;;;;;;;;;4985805;28;19981;-89
2022/09/03 13:06:52;;;;;;;;;;;;;;;;;;5001995;28;19945;-89
2022/09/03 13:09:17;;;;;;;;;;;;;;;;;;4993250;28;19898;-87
2022/09/03 13:11:43;;;;;;;;;;;;;;;;;;5001835;28;19914;-88
2022/09/03 13:14:09;;;;;;;;;;;;;;;;;;4983912;28;19918;-87
2022/09/03 13:16:35;;;;;;;;;;;;;;;;;;4997454;28;20218;-86
2022/09/03 13:19:01;;;;;;;;;;;;;;;;;;4974988;28;19914;-88
2022/09/03 13:21:26;;;;;;;;;;;;;;;;;;5013449;28;19914;-88
2022/09/03 13:23:51;;;;;;;;;;;;;;;;;;5009124;28;19922;-89
2022/09/03 13:26:17;;;;;;;;;;;;;;;;;;5007996;28;19918;-88
2022/09/03 13:28:42;;;;;;;;;;;;;;;;;;5001715;28;20433;-88
2022/09/03 13:31:08;;;;;;;;;;;;;;;;;;4983019;28;19968;-89
2022/09/03 13:33:33;;;;;;;;;;;;;;;;;;4987428;28;20021;-88
2022/09/03 13:35:59;;;;;;;;;;;;;;;;;;4994113;28;19924;-89
2022/09/03 13:38:24;;;;;;;;;;;;;;;;;;4994941;28;19914;-88
2022/09/03 13:40:50;;;;;;;;;;;;;;;;;;4987505;28;19914;-89
2022/09/03 13:43:15;;;;;;;;;;;;;;;;;;4995924;28;19921;-90
2022/09/03 13:45:41;;;;;;;;;;;;;;;;;;4968425;28;19968;-89
2022/09/03 13:50:52;;;;;;;;;;;;;;;;;;4994362;28;19921;-89
2022/09/03 13:53:17;;;;;;;;;;;;;;;;;;4982115;28;19914;-89
2022/09/03 13:55:43;;;;;;;;;;;;;;;;;;5001091;28;19937;-89
2022/09/03 13:58:08;;;;;;;;;;;;;;;;;;5000733;28;20342;-90
2022/09/03 14:00:34;;;;;;;;;;;;;;;;;;5000559;28;20259;-91
2022/09/03 14:02:59;;;;;;;;;;;;;;;;;;5005846;28;19924;-89
2022/09/03 14:05:24;;;;;;;;;;;;;;;;;;5023278;28;19914;-90
2022/09/03 14:07:50;;;;;;;;;;;;;;;;;;5015380;28;19913;-76
2022/09/03 14:10:16;;;;;;;;;;;;;;;;;;4991478;28;19914;-76
2022/09/03 14:12:43;;;;;;;;;;;;;;;;;;4992553;28;19920;-76
2022/09/03 14:15:08;;;;;;;;;;;;;;;;;;4991686;28;20362;-76
2022/09/03 14:17:33;;;;;;;;;;;;;;;;;;4992745;28;19909;-76
2022/09/03 14:19:59;;;;;;;;;;;;;;;;;;4992347;28;20073;-77
2022/09/03 14:22:24;;;;;;;;;;;;;;;;;;4991484;28;19914;-77
2022/09/03 14:24:50;;;;;;;;;;;;;;;;;;5002230;28;20328;-83
2022/09/03 14:27:15;;;;;;;;;;;;;;;;;;5012973;28;19967;-77
2022/09/03 14:29:40;;;;;;;;;;;;;;;;;;5011674;28;19914;-76
2022/09/03 14:32:06;;;;;;;;;;;;;;;;;;5011917;28;19913;-75
2022/09/03 14:34:31;;;;;;;;;;;;;;;;;;5012343;28;20340;-78
2022/09/03 14:36:57;;;;;;;;;;;;;;;;;;4995740;28;20004;-75
2022/09/03 14:39:22;;;;;;;;;;;;;;;;;;5013338;28;20284;-79
2022/09/03 14:41:49;;;;;;;;;;;;;;;;;;5011643;28;19925;-77
2022/09/03 14:44:14;;;;;;;;;;;;;;;;;;5011334;28;19960;-76
2022/09/03 14:46:41;;;;;;;;;;;;;;;;;;5012176;28;20379;-77
2022/09/03 14:49:06;;;;;;;;;;;;;;;;;;5011212;28;19973;-76
2022/09/03 14:51:31;;;;;;;;;;;;;;;;;;5012193;28;19960;-77
2022/09/03 14:53:57;;;;;;;;;;;;;;;;;;5012016;28;19914;-77
2022/09/03 14:56:22;;;;;;;;;;;;;;;;;;5007436;28;19918;-77
2022/09/03 14:58:48;;;;;;;;;;;;;;;;;;4991059;28;19914;-76
2022/09/03 15:01:14;;;;;;;;;;;;;;;;;;4992484;28;19934;-76
2022/09/03 15:03:39;;;;;;;;;;;;;;;;;;4975024;28;20000;-76
2022/09/03 15:06:05;;;;;;;;;;;;;;;;;;4992705;28;19914;-76
2022/09/03 15:08:30;;;;;;;;;;;;;;;;;;4994444;28;19914;-77
2022/09/03 15:10:55;;;;;;;;;;;;;;;;;;4996343;28;19914;-76
2022/09/03 15:13:21;;;;;;;;;;;;;;;;;;5000001;28;19913;-77
2022/09/03 15:15:46;;;;;;;;;;;;;;;;;;5017462;28;20293;-77
2022/09/03 15:18:12;;;;;;;;;;;;;;;;;;5015275;28;19921;-76
2022/09/03 15:20:37;;;;;;;;;;;;;;;;;;5015538;28;19921;-77
2022/09/03 15:23:02;;;;;;;;;;;;;;;;;;5015582;28;19922;-77
2022/09/03 15:25:28;;;;;;;;;;;;;;;;;;5015204;28;20090;-77
2022/09/03 15:27:53;;;;;;;;;;;;;;;;;;5015524;28;20425;-78
2022/09/03 15:30:19;;;;;;;;;;;;;;;;;;5015338;28;20352;-77
2022/09/03 15:32:45;;;;;;;;;;;;;;;;;;4997080;28;19933;-76
2022/09/03 15:35:10;;;;;;;;;;;;;;;;;;4995568;28;19920;-77
2022/09/03 15:37:36;;;;;;;;;;;;;;;;;;4995653;28;20289;-78
2022/09/03 15:40:01;;;;;;;;;;;;;;;;;;4994622;28;19920;-79
2022/09/03 15:42:27;;;;;;;;;;;;;;;;;;4995610;28;19913;-77
2022/09/03 15:44:53;;;;;;;;;;;;;;;;;;4995382;28;20455;-78
2022/09/03 15:47:20;;;;;;;;;;;;;;;;;;4994408;28;20385;-77
2022/09/03 15:49:45;;;;;;;;;;;;;;;;;;5010689;28;19910;-78
2022/09/03 15:52:11;;;;;;;;;;;;;;;;;;5010341;28;20005;-78
2022/09/03 15:54:36;;;;;;;;;;;;;;;;;;4995386;28;20012;-77
2022/09/03 15:57:01;;;;;;;;;;;;;;;;;;5010221;28;19921;-77
2022/09/03 15:59:27;;;;;;;;;;;;;;;;;;4995334;28;19917;-78
2022/09/03 16:01:52;;;;;;;;;;;;;;;;;;4995553;28;19924;-77
2022/09/03 16:04:19;;;;;;;;;;;;;;;;;;4998851;28;20369;-76
2022/09/03 16:06:44;;;;;;;;;;;;;;;;;;5013815;28;19919;-77
2022/09/03 16:09:10;;;;;;;;;;;;;;;;;;5013463;28;19996;-79
2022/09/03 16:11:35;;;;;;;;;;;;;;;;;;5014229;28;20269;-77
2022/09/03 16:14:01;;;;;;;;;;;;;;;;;;5016380;28;19969;-77
2022/09/03 16:16:26;;;;;;;;;;;;;;;;;;5015896;28;19913;-76
2022/09/03 16:18:52;;;;;;;;;;;;;;;;;;5015676;28;19917;-76
2022/09/03 16:21:17;;;;;;;;;;;;;;;;;;5005742;28;19913;-79
2022/09/03 16:23:42;;;;;;;;;;;;;;;;;;4996033;28;19918;-77
2022/09/03 16:26:08;;;;;;;;;;;;;;;;;;4995616;28;20275;-78
2022/09/03 16:28:33;;;;;;;;;;;;;;;;;;4978585;28;19910;-77
2022/09/03 16:30:59;;;;;;;;;;;;;;;;;;4996503;28;19914;-76
2022/09/03 16:33:24;;;;;;;;;;;;;;;;;;5002997;28;19968;-86
2022/09/03 16:35:50;;;;;;;;;;;;;;;;;;4971477;28;19913;-83
2022/09/03 16:38:16;;;;;;;;;;;;;;;;;;4997327;28;19922;-82
2022/09/03 16:40:41;;;;;;;;;;;;;;;;;;4998030;28;20004;-79